Time;durP1;ratioP1;P1;durP2;ratioP2;P2;SDS_P1;SDS_P2;PMS_P1;PMS_P2;Temp;Humidity;BMP_temperature;BMP_pressure;BME280_temperature;BME280_humidity;BME280_pressure;Samples;Min_cycle;Max_cycle;Signal;HPM_P1;HPM_P2
2022/02/12 00:01:16;;;;;;;8.13;3.83;;;1.70;1.00;;;;;;5096637;27;20239;-89
2022/02/12 00:03:43;;;;;;;6.47;3.90;;;1.70;1.00;;;;;;5089793;28;20220;-88
2022/02/12 00:06:10;;;;;;;11.00;3.40;;;1.70;1.00;;;;;;5083080;28;20227;-88
2022/02/12 00:08:36;;;;;;;9.23;3.78;;;1.70;1.00;;;;;;5078365;28;20255;-88
2022/02/12 00:11:04;;;;;;;7.18;3.28;;;1.70;1.00;;;;;;5082127;28;20217;-88
2022/02/12 00:13:33;;;;;;;7.40;3.55;;;1.70;1.00;;;;;;5078867;28;20264;-88
2022/02/12 00:16:05;;;;;;;9.07;3.40;;;1.70;1.00;;;;;;5081979;28;20226;-89
2022/02/12 00:18:33;;;;;;;14.45;4.30;;;1.70;1.00;;;;;;5079287;28;20221;-89
2022/02/12 00:21:00;;;;;;;7.50;2.90;;;1.70;1.00;;;;;;5080350;28;20222;-89
2022/02/12 00:23:27;;;;;;;5.00;3.35;;;1.70;1.00;;;;;;5080699;28;20244;-90
2022/02/12 00:25:54;;;;;;;6.10;3.00;;;1.70;1.00;;;;;;5086068;28;20224;-87
2022/02/12 00:28:21;;;;;;;6.22;3.05;;;1.60;1.00;;;;;;5084728;28;20220;-89
2022/02/12 00:30:50;;;;;;;6.72;3.25;;;1.60;1.00;;;;;;5085139;28;20264;-90
2022/02/12 00:33:18;;;;;;;6.57;3.15;;;1.60;1.00;;;;;;5079415;28;20221;-89
2022/02/12 00:35:46;;;;;;;7.10;3.70;;;1.60;1.00;;;;;;5067941;28;21142;-89
2022/02/12 00:38:13;;;;;;;5.03;2.67;;;1.60;1.00;;;;;;5068979;28;20241;-89
2022/02/12 00:40:40;;;;;;;5.53;3.20;;;1.60;1.00;;;;;;5073191;28;20213;-90
2022/02/12 00:43:07;;;;;;;5.47;3.60;;;1.70;1.00;;;;;;5074398;28;20232;-89
2022/02/12 00:45:35;;;;;;;7.10;3.53;;;1.60;1.00;;;;;;5074804;28;20252;-88
2022/02/12 00:48:04;;;;;;;6.30;2.83;;;1.70;1.00;;;;;;5075674;28;20229;-87
2022/02/12 00:50:32;;;;;;;7.00;3.30;;;1.60;1.00;;;;;;5074374;28;20224;-88
2022/02/12 00:52:59;;;;;;;9.30;3.55;;;1.60;1.00;;;;;;5072058;28;20235;-89
2022/02/12 00:55:26;;;;;;;8.82;3.92;;;1.60;1.00;;;;;;5084076;28;20226;-89
2022/02/12 00:57:53;;;;;;;5.13;3.00;;;1.60;1.00;;;;;;5084005;28;20252;-88
2022/02/12 01:00:20;;;;;;;8.30;4.00;;;1.60;1.00;;;;;;5081374;28;20228;-88
2022/02/12 01:02:47;;;;;;;5.18;2.83;;;1.50;1.00;;;;;;5087124;28;20218;-91
2022/02/12 01:05:15;;;;;;;6.80;3.83;;;1.50;1.00;;;;;;5085124;28;20232;-90
2022/02/12 01:07:42;;;;;;;6.97;3.25;;;1.40;1.00;;;;;;5093177;27;20239;-90
2022/02/12 01:10:10;;;;;;;8.00;3.85;;;1.40;1.00;;;;;;5084126;28;20256;-88
2022/02/12 01:12:37;;;;;;;8.65;3.95;;;1.40;1.00;;;;;;5093526;28;20215;-89
2022/02/12 01:15:04;;;;;;;7.68;3.95;;;1.30;1.00;;;;;;5089537;28;20240;-90
2022/02/12 01:17:31;;;;;;;7.18;2.92;;;1.30;1.00;;;;;;5096126;28;20230;-89
2022/02/12 01:19:58;;;;;;;5.82;2.75;;;1.40;1.00;;;;;;5085569;28;20233;-88
2022/02/12 01:22:27;;;;;;;6.78;3.88;;;1.40;1.00;;;;;;5076702;28;20213;-88
2022/02/12 01:24:54;;;;;;;17.55;10.43;;;1.40;1.00;;;;;;5074678;28;20225;-89
2022/02/12 01:27:21;;;;;;;7.78;3.75;;;1.30;1.00;;;;;;5079281;28;20377;-89
2022/02/12 01:29:48;;;;;;;6.07;3.20;;;1.30;1.00;;;;;;5081705;28;20221;-89
2022/02/12 01:32:15;;;;;;;5.50;3.03;;;1.30;1.00;;;;;;5075660;28;20217;-87
2022/02/12 01:34:43;;;;;;;7.35;3.13;;;1.30;1.00;;;;;;5073296;28;20230;-90
2022/02/12 01:37:10;;;;;;;8.30;3.42;;;1.30;1.00;;;;;;5073830;28;21115;-88
2022/02/12 01:39:39;;;;;;;5.60;3.30;;;1.30;1.00;;;;;;5072447;28;20345;-89
2022/02/12 01:42:06;;;;;;;5.65;3.45;;;1.30;1.00;;;;;;5065317;28;20224;-89
2022/02/12 01:44:35;;;;;;;10.40;3.35;;;1.30;1.00;;;;;;5070698;28;20224;-88
2022/02/12 01:47:03;;;;;;;4.45;3.53;;;1.30;1.00;;;;;;5068666;28;20318;-86
2022/02/12 01:49:31;;;;;;;5.80;4.20;;;1.20;1.00;;;;;;5069869;28;23057;-84
2022/02/12 01:51:58;;;;;;;7.90;4.38;;;1.20;1.00;;;;;;5094811;27;20212;-84
2022/02/12 01:54:28;;;;;;;9.65;4.97;;;1.20;1.00;;;;;;5092138;27;20234;-84
2022/02/12 01:56:58;;;;;;;8.35;4.95;;;1.20;1.00;;;;;;5090122;27;20221;-85
2022/02/12 01:59:25;;;;;;;7.45;5.28;;;1.10;1.00;;;;;;5092559;27;20222;-86
2022/02/12 02:01:53;;;;;;;12.70;5.78;;;1.00;1.00;;;;;;5090251;28;20228;-84
2022/02/12 02:04:21;;;;;;;7.35;4.00;;;0.90;1.00;;;;;;5086328;28;20233;-85
2022/02/12 02:06:48;;;;;;;6.78;4.03;;;0.80;1.00;;;;;;5083496;28;20225;-89
2022/02/12 02:09:16;;;;;;;5.38;3.85;;;0.80;1.00;;;;;;5078032;28;20304;-87
2022/02/12 02:11:43;;;;;;;9.93;4.32;;;0.80;1.00;;;;;;5078820;28;20388;-89
2022/02/12 02:14:12;;;;;;;8.57;4.10;;;0.80;1.00;;;;;;5071174;28;20217;-87
2022/02/12 02:16:41;;;;;;;8.00;4.07;;;0.80;1.00;;;;;;5077920;28;20233;-89
2022/02/12 02:19:08;;;;;;;6.80;3.53;;;0.80;1.00;;;;;;5076322;28;20255;-91
2022/02/12 02:21:37;;;;;;;6.25;3.60;;;0.70;1.00;;;;;;5079568;28;20272;-89
2022/02/12 02:24:07;;;;;;;7.32;4.10;;;0.60;1.00;;;;;;5071266;28;20217;-89
2022/02/12 02:26:36;;;;;;;5.57;3.60;;;0.60;1.00;;;;;;5079619;28;20267;-89
2022/02/12 02:29:03;;;;;;;6.45;3.22;;;0.60;1.00;;;;;;5077973;28;20277;-88
2022/02/12 02:31:30;;;;;;;6.32;3.55;;;0.60;1.00;;;;;;5068489;28;20953;-88
2022/02/12 02:33:57;;;;;;;5.22;3.58;;;0.60;1.00;;;;;;5061680;28;20239;-90
2022/02/12 02:36:24;;;;;;;5.40;3.70;;;0.60;1.00;;;;;;5076812;28;20253;-89
2022/02/12 02:38:51;;;;;;;6.70;4.18;;;0.60;1.00;;;;;;5068597;28;20241;-89
2022/02/12 02:41:20;;;;;;;7.32;3.30;;;0.50;1.00;;;;;;5062888;28;20220;-90
2022/02/12 02:43:47;;;;;;;9.10;4.35;;;0.50;1.00;;;;;;5061621;28;20276;-89
2022/02/12 02:46:14;;;;;;;10.30;4.63;;;0.50;1.00;;;;;;5073072;28;20282;-89
2022/02/12 02:48:41;;;;;;;6.70;3.92;;;0.50;1.00;;;;;;5065725;28;20282;-89
2022/02/12 02:56:38;;;;;;;7.88;3.45;;;0.40;1.00;;;;;;5065111;28;20242;-87
2022/02/12 02:59:06;;;;;;;7.00;3.45;;;0.40;1.00;;;;;;5063317;28;20244;-85
2022/02/12 03:01:35;;;;;;;8.10;3.65;;;0.40;1.00;;;;;;5058950;28;20237;-86
2022/02/12 03:04:03;;;;;;;7.22;4.40;;;0.40;1.00;;;;;;5075978;28;20231;-86
2022/02/12 03:06:30;;;;;;;8.30;4.13;;;0.40;1.00;;;;;;5063118;28;20230;-85
2022/02/12 03:08:58;;;;;;;8.40;4.18;;;0.40;1.00;;;;;;5059699;28;21429;-85
2022/02/12 03:11:26;;;;;;;9.20;3.58;;;0.40;1.00;;;;;;5055265;28;20228;-86
2022/02/12 03:13:55;;;;;;;4.85;3.33;;;0.40;1.00;;;;;;5052926;28;20321;-85
2022/02/12 03:16:22;;;;;;;7.43;3.70;;;0.40;1.00;;;;;;5055921;28;20221;-86
2022/02/12 03:18:50;;;;;;;9.35;3.75;;;0.30;1.00;;;;;;5078368;28;20247;-89
2022/02/12 03:21:18;;;;;;;7.13;3.92;;;0.30;1.00;;;;;;5062053;28;20231;-91
2022/02/12 03:23:45;;;;;;;7.07;4.28;;;0.30;1.00;;;;;;5063253;28;20229;-88
2022/02/12 03:26:13;;;;;;;7.40;4.20;;;0.30;1.00;;;;;;5063106;28;20225;-88
2022/02/12 03:28:41;;;;;;;6.65;4.05;;;0.20;1.00;;;;;;5071781;28;20228;-88
2022/02/12 03:31:10;;;;;;;10.35;4.40;;;0.20;1.00;;;;;;5072423;28;20222;-89
2022/02/12 03:33:37;;;;;;;7.05;4.50;;;0.20;1.00;;;;;;5066478;28;20278;-87
2022/02/12 03:36:06;;;;;;;8.00;5.30;;;0.10;1.00;;;;;;5068272;28;20214;-88
2022/02/12 03:38:39;;;;;;;10.77;5.35;;;0.10;1.00;;;;;;5082455;28;20324;-89
2022/02/12 03:41:08;;;;;;;8.88;4.63;;;0.10;1.00;;;;;;5078222;27;20255;-88
2022/02/12 03:43:36;;;;;;;8.80;4.72;;;0.00;1.00;;;;;;5067921;28;20228;-88
2022/02/12 03:46:04;;;;;;;8.55;4.63;;;0.00;1.00;;;;;;5081208;28;21620;-91
2022/02/12 03:48:33;;;;;;;7.88;4.80;;;0.00;1.00;;;;;;5091286;28;20204;-90
2022/02/12 03:51:01;;;;;;;9.00;5.20;;;0.00;1.00;;;;;;5088943;27;20254;-90
2022/02/12 03:53:29;;;;;;;7.85;4.40;;;0.00;1.00;;;;;;5090453;27;20213;-91
2022/02/12 03:55:57;;;;;;;10.55;4.30;;;0.00;1.00;;;;;;5088444;27;20222;-91
2022/02/12 03:58:24;;;;;;;7.53;4.70;;;0.00;1.00;;;;;;5090983;28;20352;-90
2022/02/12 04:00:51;;;;;;;8.18;4.22;;;0.10;1.00;;;;;;5079702;28;20668;-86
2022/02/12 04:03:19;;;;;;;7.78;4.78;;;0.10;1.00;;;;;;5062494;28;20240;-84
2022/02/12 04:05:48;;;;;;;6.70;4.25;;;0.00;1.00;;;;;;5053102;28;20648;-85
2022/02/12 04:08:18;;;;;;;7.20;5.05;;;0.00;1.00;;;;;;5059764;28;20228;-86
2022/02/12 04:10:47;;;;;;;9.00;5.30;;;0.10;1.00;;;;;;5060640;28;20217;-86
2022/02/12 04:13:13;;;;;;;9.43;5.53;;;0.10;1.00;;;;;;5058803;28;20233;-87
2022/02/12 04:15:40;;;;;;;11.88;5.22;;;0.00;1.00;;;;;;5059773;28;20730;-85
2022/02/12 04:18:10;;;;;;;10.98;5.80;;;0.00;1.00;;;;;;5058776;28;20241;-85
2022/02/12 04:20:37;;;;;;;12.95;5.35;;;-0.10;1.00;;;;;;5055653;28;20422;-85
2022/02/12 04:23:05;;;;;;;9.00;5.00;;;-0.10;1.00;;;;;;5066256;28;20233;-85
2022/02/12 04:25:32;;;;;;;9.50;5.10;;;-0.10;1.00;;;;;;5058913;28;20237;-86
2022/02/12 04:28:03;;;;;;;10.05;6.00;;;-0.10;1.00;;;;;;5056065;28;20224;-85
2022/02/12 04:30:30;;;;;;;8.77;4.18;;;-0.10;1.00;;;;;;5059377;28;20213;-85
2022/02/12 04:32:57;;;;;;;8.68;4.85;;;-0.10;1.00;;;;;;5061423;28;20236;-85
2022/02/12 04:35:24;;;;;;;11.07;6.78;;;-0.10;1.00;;;;;;5059982;28;20228;-85
2022/02/12 04:37:51;;;;;;;11.55;6.60;;;-0.10;1.00;;;;;;5061324;28;20225;-89
2022/02/12 04:40:20;;;;;;;9.75;5.38;;;-0.10;1.00;;;;;;5057020;28;20253;-88
2022/02/12 04:42:47;;;;;;;10.30;4.95;;;-0.20;1.00;;;;;;5059262;28;20764;-88
2022/02/12 04:45:14;;;;;;;10.65;5.60;;;-0.20;1.00;;;;;;5060903;28;20222;-89
2022/02/12 04:47:42;;;;;;;9.88;5.38;;;-0.20;1.00;;;;;;5061184;28;20221;-89
2022/02/12 04:50:10;;;;;;;9.13;5.75;;;-0.20;1.00;;;;;;5065390;28;20216;-89
2022/02/12 04:52:38;;;;;;;11.32;5.80;;;-0.20;1.00;;;;;;5072617;28;21296;-88
2022/02/12 04:55:06;;;;;;;9.82;5.20;;;-0.20;1.00;;;;;;5061599;28;20225;-88
2022/02/12 04:57:34;;;;;;;12.57;6.00;;;-0.20;1.00;;;;;;5067745;28;20300;-88
2022/02/12 05:00:02;;;;;;;9.43;5.57;;;-0.20;1.00;;;;;;5063884;28;20271;-89
2022/02/12 05:02:29;;;;;;;10.18;5.72;;;-0.30;1.00;;;;;;5067457;28;20449;-89
2022/02/12 05:04:56;;;;;;;12.48;6.63;;;-0.30;1.00;;;;;;5066113;28;20233;-88
2022/02/12 05:07:23;;;;;;;10.40;5.90;;;-0.20;1.00;;;;;;5065356;28;20224;-89
2022/02/12 05:09:51;;;;;;;8.85;6.07;;;-0.20;1.00;;;;;;5067452;28;20222;-88
2022/02/12 05:12:18;;;;;;;13.23;6.30;;;-0.30;1.00;;;;;;5080380;28;20205;-90
2022/02/12 05:14:47;;;;;;;12.48;7.00;;;-0.30;1.00;;;;;;5074533;28;20339;-88
2022/02/12 05:17:16;;;;;;;9.45;7.57;;;-0.30;1.00;;;;;;5065875;28;20302;-88
2022/02/12 05:19:45;;;;;;;10.68;7.40;;;-0.30;1.00;;;;;;5066959;28;20240;-88
2022/02/12 05:22:13;;;;;;;10.82;7.32;;;-0.40;1.00;;;;;;5064547;28;20233;-88
2022/02/12 05:24:40;;;;;;;12.45;7.07;;;-0.50;1.00;;;;;;5063132;28;20224;-89
2022/02/12 05:27:07;;;;;;;12.02;6.82;;;-0.50;1.00;;;;;;5066857;28;20233;-88
2022/02/12 05:29:34;;;;;;;11.75;6.90;;;-0.60;1.00;;;;;;5072794;28;20233;-90
2022/02/12 05:32:03;;;;;;;9.23;5.82;;;-0.70;1.00;;;;;;5065716;28;20314;-88
2022/02/12 05:34:30;;;;;;;10.25;6.68;;;-0.70;1.00;;;;;;5067332;28;20224;-91
2022/02/12 05:36:58;;;;;;;9.43;6.95;;;-0.80;1.00;;;;;;5070343;28;20255;-89
2022/02/12 05:39:26;;;;;;;9.75;6.53;;;-0.80;1.00;;;;;;5069646;28;20303;-89
2022/02/12 05:41:53;;;;;;;10.50;6.40;;;-0.90;1.00;;;;;;5075946;28;20560;-89
2022/02/12 05:44:20;;;;;;;11.10;6.15;;;-0.90;1.00;;;;;;5078239;28;20236;-90
2022/02/12 05:46:48;;;;;;;10.07;7.60;;;-0.90;1.00;;;;;;5076468;28;20220;-88
2022/02/12 05:49:18;;;;;;;9.77;5.57;;;-1.00;1.00;;;;;;5069550;28;20272;-88
2022/02/12 05:51:46;;;;;;;13.02;6.72;;;-0.90;1.00;;;;;;5064880;28;20217;-88
2022/02/12 05:54:13;;;;;;;11.98;6.45;;;-0.90;1.00;;;;;;5070525;28;20349;-88
2022/02/12 05:56:40;;;;;;;14.05;7.45;;;-0.90;1.00;;;;;;5073290;28;21011;-88
2022/02/12 05:59:12;;;;;;;11.25;6.80;;;-0.90;1.00;;;;;;5072843;28;20240;-87
2022/02/12 06:01:39;;;;;;;14.43;7.82;;;-0.90;1.00;;;;;;5094007;28;20215;-91
2022/02/12 06:04:06;;;;;;;10.40;6.88;;;-1.00;1.00;;;;;;5089508;28;20217;-93
2022/02/12 06:06:34;;;;;;;10.18;6.90;;;-1.00;1.00;;;;;;5095245;28;20243;-91
2022/02/12 06:09:01;;;;;;;11.40;7.30;;;-1.00;1.00;;;;;;5074166;28;20229;-89
2022/02/12 06:11:28;;;;;;;11.73;7.03;;;-1.00;1.00;;;;;;5068657;28;20727;-87
2022/02/12 06:13:55;;;;;;;9.80;7.03;;;-1.10;1.00;;;;;;5082701;28;20241;-88
2022/02/12 06:16:24;;;;;;;11.77;7.30;;;-1.20;1.00;;;;;;5067651;28;20280;-91
2022/02/12 06:18:51;;;;;;;11.63;6.90;;;-1.20;1.00;;;;;;5064527;28;20248;-89
2022/02/12 06:21:18;;;;;;;10.40;6.65;;;-1.20;1.00;;;;;;5066958;28;20313;-89
2022/02/12 06:23:47;;;;;;;15.45;6.68;;;-1.30;1.00;;;;;;5065302;28;20271;-88
2022/02/12 06:26:14;;;;;;;11.25;7.20;;;-1.30;1.00;;;;;;5062284;28;21012;-88
2022/02/12 06:28:41;;;;;;;10.35;6.75;;;-1.30;1.00;;;;;;5070646;28;20222;-89
2022/02/12 06:31:08;;;;;;;13.45;6.00;;;-1.30;1.00;;;;;;5068409;28;20217;-88
2022/02/12 06:33:36;;;;;;;14.63;8.55;;;-1.30;1.00;;;;;;5075491;28;20237;-88
2022/02/12 06:36:04;;;;;;;11.70;6.20;;;-1.30;1.00;;;;;;5068461;28;20224;-89
2022/02/12 06:38:31;;;;;;;9.05;5.70;;;-1.30;1.00;;;;;;5071613;28;20229;-87
2022/02/12 06:40:59;;;;;;;8.27;6.03;;;-1.30;1.00;;;;;;5085304;28;20221;-92
2022/02/12 06:43:27;;;;;;;11.40;6.03;;;-1.20;1.00;;;;;;5093382;28;20325;-91
2022/02/12 06:45:54;;;;;;;11.52;6.35;;;-1.20;1.00;;;;;;5086995;27;20550;-90
2022/02/12 06:48:20;;;;;;;15.80;6.45;;;-1.20;1.00;;;;;;5096013;28;20259;-83
2022/02/12 06:50:49;;;;;;;11.20;6.40;;;-1.20;1.00;;;;;;5078739;28;20218;-85
2022/02/12 06:53:15;;;;;;;9.02;6.75;;;-1.20;1.00;;;;;;5057448;28;20228;-85
2022/02/12 06:55:42;;;;;;;13.88;6.82;;;-1.20;1.00;;;;;;5060218;28;20217;-86
2022/02/12 06:58:12;;;;;;;8.30;6.43;;;-1.10;1.00;;;;;;5078296;28;20639;-85
2022/02/12 07:00:39;;;;;;;13.80;7.03;;;-1.10;1.00;;;;;;5077446;28;20225;-84
2022/02/12 07:03:06;;;;;;;11.55;6.55;;;-1.00;1.00;;;;;;5079644;28;20272;-85
2022/02/12 07:05:33;;;;;;;12.63;7.15;;;-0.90;1.00;;;;;;5081361;27;20228;-84
2022/02/12 07:08:00;;;;;;;10.57;6.70;;;-0.90;1.00;;;;;;5083974;28;20237;-83
2022/02/12 07:10:29;;;;;;;12.98;7.38;;;-0.90;1.00;;;;;;5065806;28;20221;-86
2022/02/12 07:12:56;;;;;;;9.30;6.55;;;-0.90;1.00;;;;;;5059836;28;20283;-86
2022/02/12 07:15:24;;;;;;;13.43;7.78;;;-0.80;1.00;;;;;;5057339;28;20221;-86
2022/02/12 07:17:51;;;;;;;10.32;7.53;;;-0.80;1.00;;;;;;5070128;28;20225;-84
2022/02/12 07:20:18;;;;;;;14.43;7.90;;;-0.80;1.00;;;;;;5068654;28;20320;-89
2022/02/12 07:22:45;;;;;;;16.58;8.00;;;-0.80;1.00;;;;;;5064660;28;20224;-88
2022/02/12 07:25:13;;;;;;;13.68;8.45;;;-0.80;1.00;;;;;;5061318;28;24504;-89
2022/02/12 07:27:41;;;;;;;12.75;8.38;;;-0.80;1.00;;;;;;5057585;28;20320;-89
2022/02/12 07:30:10;;;;;;;13.93;8.70;;;-0.80;1.00;;;;;;5074500;28;20223;-90
2022/02/12 07:32:40;;;;;;;13.98;8.73;;;-0.70;1.00;;;;;;5061621;28;20229;-86
2022/02/12 07:35:10;;;;;;;21.83;9.38;;;-0.70;1.00;;;;;;5060761;28;20233;-88
2022/02/12 07:37:39;;;;;;;13.57;9.48;;;-0.60;1.00;;;;;;5059644;28;20681;-88
2022/02/12 07:40:07;;;;;;;15.23;10.00;;;-0.50;1.00;;;;;;5061817;28;21076;-84
2022/02/12 07:42:35;;;;;;;22.00;12.38;;;-0.50;1.00;;;;;;5061408;28;20890;-89
2022/02/12 07:45:02;;;;;;;20.35;12.43;;;-0.50;1.00;;;;;;5057252;28;20237;-88
2022/02/12 07:47:29;;;;;;;20.88;11.55;;;-0.40;1.00;;;;;;5059996;28;20217;-87
2022/02/12 07:49:57;;;;;;;17.30;10.80;;;-0.40;1.00;;;;;;5064171;28;20225;-86
2022/02/12 07:52:25;;;;;;;15.60;11.10;;;-0.30;1.00;;;;;;5063244;28;20224;-85
2022/02/12 07:54:52;;;;;;;13.38;9.80;;;-0.20;1.00;;;;;;5059058;28;21002;-86
2022/02/12 07:57:19;;;;;;;19.90;11.85;;;-0.10;1.00;;;;;;5056598;28;20308;-85
2022/02/12 07:59:46;;;;;;;16.30;9.88;;;0.00;1.00;;;;;;5054362;28;20371;-84
2022/02/12 08:02:12;;;;;;;17.02;11.05;;;0.20;1.00;;;;;;5052513;28;20222;-85
2022/02/12 08:04:39;;;;;;;18.33;12.30;;;0.30;1.00;;;;;;5056503;28;20241;-85
2022/02/12 08:09:52;;;;;;;16.98;15.30;;;0.60;1.00;;;;;;5062021;28;20264;-85
2022/02/12 08:12:18;;;;;;;15.50;13.18;;;0.70;1.00;;;;;;5055918;28;20673;-85
2022/02/12 08:14:47;;;;;;;12.75;11.45;;;0.80;1.00;;;;;;5058690;28;20228;-83
2022/02/12 08:17:16;;;;;;;12.95;9.80;;;0.90;1.00;;;;;;5059427;28;20217;-83
2022/02/12 08:19:46;;;;;;;16.60;8.68;;;1.00;1.00;;;;;;5067608;28;20233;-82
2022/02/12 08:22:15;;;;;;;16.02;9.65;;;1.20;1.00;;;;;;5075675;28;20265;-85
2022/02/12 08:24:43;;;;;;;10.10;7.88;;;1.40;1.00;;;;;;5062414;28;20232;-85
2022/02/12 08:27:11;;;;;;;12.13;7.35;;;1.50;1.00;;;;;;5063686;28;20221;-83
2022/02/12 08:29:38;;;;;;;9.75;8.00;;;1.70;1.00;;;;;;5059829;28;20225;-86
2022/02/12 08:32:07;;;;;;;11.20;5.97;;;1.80;1.00;;;;;;5064191;28;20288;-84
2022/02/12 08:34:36;;;;;;;11.55;8.05;;;1.90;1.00;;;;;;5069134;28;20252;-87
2022/02/12 08:37:03;;;;;;;12.77;7.10;;;2.00;1.00;;;;;;5070965;28;20252;-87
2022/02/12 09:05:30;;;;;;;9.50;5.20;;;5.30;1.00;;;;;;5251899;22;20958;-89
2022/02/12 09:11:39;;;;;;;13.80;5.20;;;6.60;1.00;;;;;;5047059;28;20228;-90
2022/02/12 09:14:16;;;;;;;11.82;5.55;;;6.20;1.00;;;;;;5062713;28;20233;-87
2022/02/12 09:17:05;;;;;;;8.88;4.45;;;6.00;1.00;;;;;;5077390;28;20213;-87
2022/02/12 09:19:35;;;;;;;5.95;5.32;;;5.50;1.00;;;;;;5090154;28;20237;-85
2022/02/12 09:22:03;;;;;;;11.30;5.63;;;5.10;1.00;;;;;;5084775;28;20220;-87
2022/02/12 09:24:30;;;;;;;11.98;4.90;;;4.90;1.00;;;;;;5074427;28;20319;-87
2022/02/12 09:26:57;;;;;;;7.70;4.40;;;5.00;1.00;;;;;;5068154;28;20302;-87
2022/02/12 09:29:24;;;;;;;8.95;5.05;;;5.10;1.00;;;;;;5076701;27;20228;-86
2022/02/12 09:31:51;;;;;;;9.02;4.53;;;5.00;1.00;;;;;;5090530;28;20219;-88
2022/02/12 09:34:19;;;;;;;9.45;4.25;;;5.20;1.00;;;;;;5088774;28;20209;-88
2022/02/12 09:36:50;;;;;;;8.68;4.72;;;5.50;1.00;;;;;;5088129;28;20216;-87
2022/02/12 09:39:18;;;;;;;6.85;4.85;;;6.00;1.00;;;;;;5090130;27;20233;-89
2022/02/12 09:41:46;;;;;;;10.20;4.50;;;6.90;1.00;;;;;;5074159;28;20216;-85
2022/02/12 09:44:13;;;;;;;7.88;4.28;;;8.10;1.00;;;;;;5067459;28;20811;-84
2022/02/12 09:50:00;;;;;;;6.60;3.60;;;10.80;1.00;;;;;;5061957;28;20248;-85
2022/02/12 09:52:31;;;;;;;7.40;4.17;;;11.40;1.00;;;;;;5069808;28;20449;-87
2022/02/12 09:55:00;;;;;;;7.97;4.30;;;11.10;1.00;;;;;;5082570;28;20406;-83
2022/02/12 09:57:28;;;;;;;11.52;5.45;;;10.60;1.00;;;;;;5077759;28;20422;-84
2022/02/12 09:59:58;;;;;;;7.47;4.33;;;10.20;1.00;;;;;;5068530;28;21885;-85
2022/02/12 10:02:26;;;;;;;8.80;3.63;;;9.80;1.00;;;;;;5074087;28;20572;-87
2022/02/12 10:05:21;;;;;;;12.05;5.95;;;9.40;1.00;;;;;;5071173;28;21438;-87
2022/02/12 10:08:43;;;;;;;8.23;3.80;;;9.30;1.00;;;;;;5065867;28;20281;-89
2022/02/12 10:11:32;;;;;;;16.10;7.88;;;8.90;1.00;;;;;;5067505;28;21024;-86
2022/02/12 10:14:09;;;;;;;6.43;3.70;;;8.50;1.00;;;;;;5078529;28;20246;-84
2022/02/12 10:16:53;;;;;;;10.27;5.40;;;8.50;1.00;;;;;;5070981;28;20229;-85
2022/02/12 10:19:29;;;;;;;8.70;3.65;;;8.50;1.00;;;;;;5073395;28;20832;-86
2022/02/12 10:22:13;;;;;;;8.10;3.58;;;8.20;1.00;;;;;;5073858;28;20224;-85
2022/02/12 10:24:48;;;;;;;7.03;3.33;;;8.10;1.00;;;;;;5067994;28;20224;-85
2022/02/12 10:27:17;;;;;;;11.25;3.25;;;7.90;1.00;;;;;;5070187;28;20217;-85
2022/02/12 10:29:47;;;;;;;9.35;3.42;;;7.90;1.00;;;;;;5071590;28;20221;-86
2022/02/12 10:32:21;;;;;;;6.82;2.80;;;7.50;1.00;;;;;;5075269;28;20220;-86
2022/02/12 10:34:50;;;;;;;5.10;2.78;;;7.20;1.00;;;;;;5064975;28;20233;-85
2022/02/12 10:37:18;;;;;;;6.88;3.72;;;7.70;1.00;;;;;;5071377;28;20305;-84
2022/02/12 10:39:53;;;;;;;6.50;3.38;;;8.90;1.00;;;;;;5083736;28;20253;-86
2022/02/12 10:45:18;;;;;;;8.88;4.45;;;10.30;1.00;;;;;;5110920;22;20411;-86
2022/02/12 10:47:48;;;;;;;5.97;2.85;;;10.40;1.00;;;;;;5095149;28;20333;-86
2022/02/12 10:50:20;;;;;;;4.30;2.42;;;10.40;1.00;;;;;;5099225;27;20263;-84
2022/02/12 10:52:49;;;;;;;5.73;3.17;;;10.10;1.00;;;;;;5112998;27;20215;-84
2022/02/12 10:55:31;;;;;;;6.43;3.17;;;9.70;1.00;;;;;;5088140;28;20416;-83
2022/02/12 10:58:03;;;;;;;4.95;3.85;;;9.90;1.00;;;;;;5072271;28;20427;-89
2022/02/12 11:00:48;;;;;;;12.90;3.93;;;10.60;1.00;;;;;;5088206;28;20296;-88
2022/02/12 11:03:16;;;;;;;4.17;2.93;;;10.90;1.00;;;;;;5054265;28;20503;-87
2022/02/12 11:05:48;;;;;;;4.57;2.50;;;11.10;1.00;;;;;;5067843;28;20471;-86
2022/02/12 11:08:15;;;;;;;8.00;3.20;;;11.70;1.00;;;;;;5060585;28;20460;-87
2022/02/12 11:10:45;;;;;;;6.87;3.60;;;12.20;1.00;;;;;;5057785;28;20511;-84
2022/02/12 11:13:16;;;;;;;10.10;3.50;;;12.10;1.00;;;;;;5042294;28;20439;-78
2022/02/12 11:15:46;;;;;;;18.03;3.87;;;12.30;1.00;;;;;;5059987;28;20466;-88
2022/02/12 11:18:19;;;;;;;7.77;2.73;;;12.10;1.00;;;;;;5064397;28;21258;-86
2022/02/12 11:20:51;;;;;;;4.77;2.97;;;12.00;1.00;;;;;;5060301;28;20420;-85
2022/02/12 11:23:28;;;;;;;4.10;2.57;;;11.80;1.00;;;;;;5068111;28;20448;-87
2022/02/12 11:45:00;;;;;;;7.97;3.80;;;11.90;1.00;;;;;;4887209;28;20499;-88
2022/02/12 11:48:06;;;;;;;21.03;10.77;;;12.30;1.00;;;;;;4963801;28;21634;-87
2022/02/12 11:50:43;;;;;;;6.30;3.10;;;12.50;1.00;;;;;;5062438;28;20591;-87
2022/02/12 11:53:43;;;;;;;7.07;2.60;;;12.50;1.00;;;;;;5074353;28;20525;-87
2022/02/12 11:56:48;;;;;;;7.33;3.63;;;12.50;1.00;;;;;;5067191;28;20420;-86
2022/02/12 11:59:26;;;;;;;7.83;3.30;;;12.50;1.00;;;;;;5061740;28;20470;-88
2022/02/12 12:01:59;;;;;;;7.63;2.83;;;12.70;1.00;;;;;;5064958;28;20493;-86
2022/02/12 12:04:33;;;;;;;4.90;2.33;;;13.90;1.00;;;;;;5047053;28;20486;-85
2022/02/12 12:39:42;;;;;;;5.60;2.10;;;14.70;1.00;;;;;;5094692;22;20444;-89
2022/02/12 12:42:16;;;;;;;4.47;1.97;;;14.90;1.00;;;;;;5056333;28;20569;-85
2022/02/12 12:44:58;;;;;;;2.13;0.87;;;14.00;1.00;;;;;;5048880;28;20464;-91
2022/02/12 12:47:25;;;;;;;4.60;1.97;;;14.50;1.00;;;;;;5032496;28;20472;-87
2022/02/12 12:52:32;;;;;;;2.80;1.40;;;14.80;1.00;;;;;;5090911;22;20450;-87
2022/02/12 12:55:08;;;;;;;2.97;1.77;;;13.80;1.00;;;;;;5073688;28;20463;-87
2022/02/12 12:57:41;;;;;;;5.23;2.07;;;13.20;1.00;;;;;;5091581;28;20465;-87
2022/02/12 13:00:15;;;;;;;4.20;1.57;;;13.20;1.00;;;;;;5208333;22;20479;-89
2022/02/12 13:02:51;;;;;;;4.47;1.97;;;12.80;1.00;;;;;;5100534;27;20403;-90
2022/02/12 13:05:23;;;;;;;3.23;1.60;;;12.40;1.00;;;;;;5080081;28;20453;-87
2022/02/12 13:08:04;;;;;;;4.67;2.00;;;11.70;1.00;;;;;;5070700;28;20446;-87
2022/02/12 13:10:34;;;;;;;3.20;1.70;;;11.00;1.00;;;;;;5112565;27;20410;-88
2022/02/12 13:13:14;;;;;;;3.08;1.40;;;10.50;1.00;;;;;;5109575;27;20391;-89
2022/02/12 13:15:43;;;;;;;3.20;1.60;;;10.60;1.00;;;;;;5115313;27;20235;-86
2022/02/12 13:18:11;;;;;;;3.57;1.47;;;10.00;1.00;;;;;;5097249;28;20449;-89
2022/02/12 13:20:40;;;;;;;4.67;2.43;;;10.50;1.00;;;;;;5090813;28;20509;-89
2022/02/12 13:23:08;;;;;;;3.60;1.90;;;10.80;1.00;;;;;;5089847;28;20471;-88
2022/02/12 13:25:48;;;;;;;5.77;2.07;;;11.20;1.00;;;;;;5079526;28;20449;-88
2022/02/12 13:28:19;;;;;;;8.20;2.23;;;11.00;1.00;;;;;;5092024;28;20474;-87
2022/02/12 13:30:51;;;;;;;6.60;1.80;;;10.90;1.00;;;;;;5090843;28;22171;-86
2022/02/12 13:33:23;;;;;;;3.93;2.90;;;11.20;1.00;;;;;;5086304;28;20427;-87
2022/02/12 13:35:52;;;;;;;3.23;1.47;;;11.80;1.00;;;;;;5086420;28;21862;-86
2022/02/12 13:38:24;;;;;;;2.47;1.40;;;11.60;1.00;;;;;;5094312;28;20949;-86
2022/02/12 13:40:55;;;;;;;3.20;1.60;;;11.80;1.00;;;;;;5095309;27;21346;-88
2022/02/12 13:43:28;;;;;;;3.30;1.50;;;11.10;1.00;;;;;;5071590;28;20439;-88
2022/02/12 13:46:10;;;;;;;4.20;2.33;;;10.20;1.00;;;;;;5061440;28;20251;-83
2022/02/12 13:49:00;;;;;;;4.95;1.70;;;9.50;1.00;;;;;;5068406;28;20906;-84
2022/02/12 13:55:27;;;;;;;4.15;1.90;;;8.90;1.00;;;;;;5087929;28;20341;-84
2022/02/12 13:58:30;;;;;;;4.10;1.80;;;8.50;1.00;;;;;;5101133;28;20259;-84
2022/02/12 14:01:18;;;;;;;4.72;1.77;;;8.00;1.00;;;;;;5066519;28;20911;-84
2022/02/12 14:04:03;;;;;;;6.90;2.35;;;7.80;1.00;;;;;;5076384;28;20236;-85
2022/02/12 14:09:39;;;;;;;4.43;2.35;;;6.80;1.00;;;;;;5086380;28;20216;-86
2022/02/12 14:12:14;;;;;;;5.05;2.33;;;6.50;1.00;;;;;;5147577;22;20235;-85
2022/02/12 14:17:47;;;;;;;3.85;1.80;;;6.40;1.00;;;;;;4728015;25;20354;-84
2022/02/12 14:20:27;;;;;;;5.03;2.05;;;6.40;1.00;;;;;;5073172;28;20214;-85
2022/02/12 14:23:13;;;;;;;5.10;2.03;;;6.40;1.00;;;;;;5079498;28;20224;-83
2022/02/12 14:25:45;;;;;;;6.00;2.50;;;6.50;1.00;;;;;;5075120;28;20613;-86
2022/02/12 14:28:23;;;;;;;6.13;2.20;;;6.40;1.00;;;;;;5079186;28;20220;-85
2022/02/12 14:31:08;;;;;;;4.78;1.65;;;6.30;1.00;;;;;;5074662;28;20296;-86
2022/02/12 14:33:43;;;;;;;5.10;2.40;;;6.10;1.00;;;;;;5078954;28;20224;-84
2022/02/12 14:36:12;;;;;;;6.32;4.03;;;6.10;1.00;;;;;;5100066;28;20203;-82
2022/02/12 14:38:43;;;;;;;4.72;2.22;;;6.10;1.00;;;;;;5087926;28;20243;-83
2022/02/12 14:41:20;;;;;;;3.38;1.80;;;6.00;1.00;;;;;;5075018;28;20236;-86
2022/02/12 14:43:47;;;;;;;7.53;2.47;;;5.80;1.00;;;;;;5071806;28;20233;-85
2022/02/12 14:46:18;;;;;;;5.50;2.10;;;5.70;1.00;;;;;;5095342;28;20661;-85
2022/02/12 14:48:50;;;;;;;4.65;2.30;;;5.60;1.00;;;;;;5095236;28;20224;-85
2022/02/12 14:51:24;;;;;;;3.58;2.30;;;5.60;1.00;;;;;;5098319;28;20211;-86
2022/02/12 14:53:55;;;;;;;5.45;2.90;;;5.50;1.00;;;;;;5077607;28;20355;-84
2022/02/12 14:56:27;;;;;;;3.55;2.58;;;5.60;1.00;;;;;;5079458;28;20323;-84
2022/02/12 14:59:15;;;;;;;4.38;2.60;;;5.50;1.00;;;;;;5105593;28;20276;-82
2022/02/12 15:01:43;;;;;;;4.97;1.95;;;5.40;1.00;;;;;;5106890;28;20271;-82